createdAt,value
2023-03-01T00:00:00.224Z,6.4
2023-03-01T00:05:00.224Z,5.7
2023-03-01T00:10:00.218Z,6.3
2023-03-01T00:15:00.224Z,6.2
2023-03-01T00:20:00.239Z,5.8
2023-03-01T00:25:00.226Z,6.6
2023-03-01T00:30:00.217Z,6.5
2023-03-01T00:35:00.232Z,6.7
2023-03-01T00:40:00.233Z,6.5
2023-03-01T00:45:00.238Z,6.1
2023-03-01T00:50:00.229Z,6.3
2023-03-01T00:55:00.235Z,5.7
2023-03-01T01:00:00.229Z,6.2
2023-03-01T01:05:00.221Z,5.7
2023-03-01T01:10:00.270Z,6.2
2023-03-01T01:15:00.224Z,5.5
2023-03-01T01:20:00.228Z,5.7
2023-03-01T01:25:00.262Z,6.2
2023-03-01T01:30:00.252Z,5.2
2023-03-01T01:35:00.231Z,5.2
2023-03-01T01:40:00.265Z,5.2
2023-03-01T01:45:00.230Z,4.6
2023-03-01T01:50:00.233Z,5.0
2023-03-01T01:55:00.224Z,5.4
2023-03-01T02:00:00.250Z,5.2
2023-03-01T02:05:00.246Z,4.7
2023-03-01T02:10:00.219Z,4.7
2023-03-01T02:15:00.219Z,5.0
2023-03-01T02:20:00.243Z,5.1
2023-03-01T02:25:00.231Z,5.2
2023-03-01T02:30:00.234Z,5.2
2023-03-01T02:35:00.229Z,5.1
2023-03-01T02:40:00.222Z,5.4
2023-03-01T02:45:00.224Z,5.5
2023-03-01T02:50:00.219Z,5.6
2023-03-01T02:55:00.233Z,5.3
2023-03-01T03:00:00.232Z,5.9
2023-03-01T03:05:00.236Z,5.3
2023-03-01T03:10:00.223Z,5.4
2023-03-01T03:15:00.230Z,5.6
2023-03-01T03:20:00.222Z,5.7
2023-03-01T03:25:00.232Z,5.3
2023-03-01T03:30:00.209Z,5.8
2023-03-01T03:35:00.223Z,5.5
2023-03-01T03:40:00.258Z,5.9
2023-03-01T03:45:00.230Z,6.0
2023-03-01T03:50:00.246Z,6.1
2023-03-01T03:55:00.231Z,5.8
2023-03-01T04:00:00.265Z,6.1
2023-03-01T04:05:00.233Z,5.8
2023-03-01T04:10:00.221Z,6.3
2023-03-01T04:15:00.222Z,6.2
2023-03-01T04:20:00.229Z,5.9
2023-03-01T04:25:00.214Z,6.0
2023-03-01T04:30:00.238Z,6.4
2023-03-01T04:35:00.225Z,6.2
2023-03-01T04:40:00.232Z,6.1
2023-03-01T04:45:00.225Z,6.9
2023-03-01T04:50:00.232Z,5.7
2023-03-01T04:55:00.232Z,6.2
2023-03-01T05:00:00.224Z,6.7
2023-03-01T05:05:00.225Z,6.4
2023-03-01T05:10:00.241Z,6.3
2023-03-01T05:15:00.222Z,6.9
2023-03-01T05:20:00.229Z,7.0
2023-03-01T05:25:00.225Z,6.8
2023-03-01T05:30:00.229Z,7.6
2023-03-01T05:35:00.211Z,7.3
2023-03-01T05:40:00.230Z,7.2
2023-03-01T05:45:00.213Z,8.1
2023-03-01T05:50:00.229Z,8.3
2023-03-01T05:55:00.209Z,8.2
2023-03-01T06:00:00.235Z,8.6
2023-03-01T06:05:00.338Z,8.3
2023-03-01T06:10:00.240Z,8.8
2023-03-01T06:15:00.231Z,9.0
2023-03-01T06:20:00.230Z,9.3
2023-03-01T06:25:00.236Z,8.9
2023-03-01T06:30:00.262Z,8.7
2023-03-01T06:35:00.247Z,9.3
2023-03-01T06:40:00.260Z,10.4
2023-03-01T06:45:00.234Z,10.1
2023-03-01T06:50:00.224Z,9.5
2023-03-01T06:55:00.238Z,9.3
2023-03-01T07:00:00.261Z,9.6
2023-03-01T07:05:00.288Z,9.5
2023-03-01T07:10:00.231Z,10.1
2023-03-01T07:15:00.230Z,10.2
2023-03-01T07:20:00.236Z,9.5
2023-03-01T07:25:00.236Z,9.3
2023-03-01T07:30:00.231Z,10.2
2023-03-01T07:35:00.232Z,10.5
2023-03-01T07:40:00.238Z,11.4
2023-03-01T07:45:00.243Z,10.0
2023-03-01T07:50:00.238Z,11.2
2023-03-01T07:55:00.252Z,11.3
2023-03-01T08:00:00.230Z,11.6
2023-03-01T08:05:00.219Z,10.1
2023-03-01T08:10:00.221Z,10.5
2023-03-01T08:15:00.279Z,10.6
2023-03-01T08:20:00.260Z,11.8
2023-03-01T08:25:00.229Z,11.5
2023-03-01T08:30:00.229Z,11.6
2023-03-01T08:35:00.220Z,11.1
2023-03-01T08:40:00.320Z,11.3
2023-03-01T08:45:00.240Z,11.3
2023-03-01T08:50:00.230Z,11.1
2023-03-01T08:55:00.216Z,11.0
2023-03-01T09:00:00.234Z,10.1
2023-03-01T09:05:00.243Z,9.3
2023-03-01T09:10:00.227Z,9.5
2023-03-01T09:15:00.210Z,9.0
2023-03-01T09:20:00.228Z,9.6
2023-03-01T09:25:00.310Z,9.1
2023-03-01T09:30:00.225Z,8.9
2023-03-01T09:35:00.254Z,8.8
2023-03-01T09:40:00.237Z,8.2
2023-03-01T09:45:00.247Z,6.6
2023-03-01T09:50:00.236Z,8.1
2023-03-01T09:55:01.029Z,7.1
2023-03-01T10:00:00.218Z,6.3
2023-03-01T10:05:00.336Z,6.0
2023-03-01T10:10:00.231Z,5.2
2023-03-01T10:15:00.230Z,4.2
2023-03-01T10:20:00.230Z,4.1
2023-03-01T10:25:00.242Z,4.0
2023-03-01T10:30:00.227Z,5.0
2023-03-01T10:35:00.231Z,4.3
2023-03-01T10:40:00.221Z,4.1
2023-03-01T10:45:00.244Z,4.5
2023-03-01T10:50:00.256Z,4.0
2023-03-01T10:55:00.234Z,4.3
2023-03-01T11:00:00.228Z,3.8
2023-03-01T11:05:00.308Z,3.9
2023-03-01T11:10:00.233Z,3.8
2023-03-01T11:15:00.237Z,3.4
2023-03-01T11:20:02.861Z,3.8
2023-03-01T11:25:10.016Z,4.1
2023-03-01T11:30:00.263Z,3.6
2023-03-01T11:35:00.235Z,3.6
2023-03-01T11:40:00.231Z,2.9
2023-03-01T11:45:00.237Z,3.2
2023-03-01T11:50:00.231Z,3.2
2023-03-01T11:55:00.246Z,3.3
2023-03-01T12:00:00.218Z,3.3
2023-03-01T12:05:00.240Z,3.0
2023-03-01T12:10:00.247Z,3.3
2023-03-01T12:15:00.263Z,3.3
2023-03-01T12:20:00.231Z,2.8
2023-03-01T12:25:00.236Z,2.4
2023-03-01T12:30:00.223Z,3.2
2023-03-01T12:35:00.230Z,3.4
2023-03-01T12:40:00.233Z,3.0
2023-03-01T12:45:00.237Z,3.7
2023-03-01T12:50:00.230Z,3.4
2023-03-01T12:55:00.232Z,3.3
2023-03-01T13:00:00.234Z,3.4
2023-03-01T13:05:00.256Z,3.2
2023-03-01T13:10:00.239Z,3.3
2023-03-01T13:15:00.238Z,3.2
2023-03-01T13:20:00.249Z,3.4
2023-03-01T13:25:00.222Z,3.0
2023-03-01T13:30:00.241Z,3.6
2023-03-01T13:35:00.210Z,3.2
2023-03-01T13:40:00.209Z,3.1
2023-03-01T13:45:00.221Z,3.1
2023-03-01T13:50:00.242Z,4.0
2023-03-01T13:55:00.226Z,3.4
2023-03-01T14:00:00.237Z,3.1
2023-03-01T14:10:00.241Z,3.3
2023-03-01T14:15:00.232Z,3.3
2023-03-01T14:20:00.257Z,3.2
2023-03-01T14:25:00.240Z,3.5
2023-03-01T14:30:00.216Z,6.0
2023-03-01T14:35:00.262Z,3.5
2023-03-01T14:40:00.236Z,3.2
2023-03-01T14:45:00.221Z,5.3
2023-03-01T14:50:00.233Z,4.5
2023-03-01T14:55:00.230Z,7.4
2023-03-01T15:00:00.258Z,3.5
2023-03-01T15:05:00.239Z,4.3
2023-03-01T15:10:00.254Z,3.7
2023-03-01T15:15:04.652Z,4.1
2023-03-01T15:20:00.224Z,3.2
2023-03-01T15:25:00.228Z,3.7
2023-03-01T15:30:00.235Z,3.5
2023-03-01T15:35:00.223Z,3.6
2023-03-01T15:40:00.226Z,3.9
2023-03-01T15:45:00.237Z,4.0
2023-03-01T15:50:00.287Z,4.5
2023-03-01T15:55:00.229Z,5.1
2023-03-01T16:00:00.314Z,3.7
2023-03-01T16:05:00.234Z,4.0
2023-03-01T16:10:00.341Z,3.3
2023-03-01T16:15:00.238Z,3.2
2023-03-01T16:20:00.334Z,3.5
2023-03-01T16:25:00.232Z,2.8
2023-03-01T16:30:00.473Z,3.2
2023-03-01T16:35:00.238Z,3.6
2023-03-01T16:40:00.232Z,3.3
2023-03-01T16:45:00.221Z,3.2
2023-03-01T16:50:00.242Z,3.8
2023-03-01T16:55:00.236Z,3.9
2023-03-01T17:00:00.280Z,3.8
2023-03-01T17:05:00.237Z,5.8
2023-03-01T17:10:00.226Z,4.6
2023-03-01T17:15:00.241Z,5.0
2023-03-01T17:20:00.951Z,4.4
2023-03-01T17:25:00.218Z,4.0
2023-03-01T17:30:00.224Z,4.4
2023-03-01T17:35:00.229Z,4.4
2023-03-01T17:40:00.251Z,4.0
2023-03-01T17:45:00.254Z,4.5
2023-03-01T17:50:00.236Z,4.7
2023-03-01T17:55:00.271Z,4.6
2023-03-01T18:00:00.230Z,4.2
2023-03-01T18:05:00.231Z,4.9
2023-03-01T18:10:00.249Z,5.1
2023-03-01T18:15:00.234Z,4.8
2023-03-01T18:20:00.237Z,4.4
2023-03-01T18:25:00.250Z,4.5
2023-03-01T18:30:00.231Z,4.5
2023-03-01T18:35:00.226Z,4.6
2023-03-01T18:40:00.222Z,4.9
2023-03-01T18:45:00.263Z,5.0
2023-03-01T18:50:00.224Z,4.5
2023-03-01T18:55:00.263Z,4.5
2023-03-01T19:00:00.259Z,5.0
2023-03-01T19:05:00.231Z,5.4
2023-03-01T19:10:00.223Z,4.9
2023-03-01T19:15:00.236Z,5.3
2023-03-01T19:20:00.227Z,6.0
2023-03-01T19:25:00.240Z,5.8
2023-03-01T19:30:00.246Z,5.4
2023-03-01T19:35:00.231Z,6.3
2023-03-01T19:40:00.250Z,5.3
2023-03-01T19:45:00.229Z,5.9
2023-03-01T19:50:00.233Z,6.0
2023-03-01T19:55:08.898Z,6.3
2023-03-01T20:00:00.235Z,6.9
2023-03-01T20:05:00.245Z,7.5
2023-03-01T20:10:00.219Z,8.6
2023-03-01T20:15:00.215Z,9.8
2023-03-01T20:20:00.357Z,9.4
2023-03-01T20:25:00.251Z,8.5
2023-03-01T20:30:00.229Z,6.7
2023-03-01T20:35:00.237Z,7.2
2023-03-01T20:40:00.233Z,7.4
2023-03-01T20:45:00.238Z,8.1
2023-03-01T20:50:00.238Z,7.1
2023-03-01T20:55:00.253Z,8.2
2023-03-01T21:00:00.259Z,7.8
2023-03-01T21:05:00.301Z,8.0
2023-03-01T21:10:00.443Z,8.7
2023-03-01T21:15:00.227Z,8.9
2023-03-01T21:20:00.262Z,8.1
2023-03-01T21:25:00.225Z,8.0
2023-03-01T21:30:00.217Z,8.7
2023-03-01T21:35:00.234Z,7.9
2023-03-01T21:40:00.267Z,8.8
2023-03-01T21:45:00.218Z,8.6
2023-03-01T21:50:00.264Z,9.2
2023-03-01T21:55:00.225Z,9.5
2023-03-01T22:00:00.232Z,9.9
2023-03-01T22:05:00.227Z,10.2
2023-03-01T22:10:00.230Z,10.9
2023-03-01T22:15:00.238Z,9.9
2023-03-01T22:20:00.227Z,10.7
2023-03-01T22:25:00.227Z,12.9
2023-03-01T22:30:00.227Z,13.5
2023-03-01T22:35:00.223Z,13.3
2023-03-01T22:40:00.238Z,13.2
2023-03-01T22:45:00.232Z,15.6
2023-03-01T22:50:00.234Z,15.5
2023-03-01T22:55:00.239Z,15.3
2023-03-01T23:00:00.234Z,16.6
2023-03-01T23:05:00.235Z,16.6
2023-03-01T23:10:00.241Z,16.9
2023-03-01T23:15:00.228Z,16.9
2023-03-01T23:20:00.228Z,19.4
2023-03-01T23:25:00.229Z,18.0
2023-03-01T23:30:00.230Z,18.8
2023-03-01T23:35:00.226Z,19.7
2023-03-01T23:40:00.241Z,18.7
2023-03-01T23:45:00.220Z,20.5
2023-03-01T23:50:00.246Z,18.9
2023-03-01T23:55:00.248Z,21.6
